createdAt,value
2023-05-06T00:00:37.731Z,12.16
2023-05-06T00:05:41.890Z,12.12
2023-05-06T00:10:46.424Z,12.09
2023-05-06T00:15:49.443Z,12.06
2023-05-06T00:20:52.471Z,11.95
2023-05-06T00:25:57.233Z,11.92
2023-05-06T00:31:00.601Z,11.77
2023-05-06T00:36:03.735Z,11.68
2023-05-06T00:41:08.186Z,11.56
2023-05-06T00:46:12.276Z,11.47
2023-05-06T00:51:15.660Z,11.42
2023-05-06T00:56:20.898Z,11.33
2023-05-06T01:01:25.200Z,11.38
2023-05-06T01:06:36.530Z,11.37
2023-05-06T01:11:49.885Z,11.28
2023-05-06T01:16:56.925Z,11.24
2023-05-06T01:22:02.565Z,11.14
2023-05-06T01:27:08.049Z,11.01
2023-05-06T01:32:32.907Z,10.97
2023-05-06T01:37:46.403Z,10.84
2023-05-06T01:42:50.937Z,10.83
2023-05-06T01:47:54.761Z,10.80
2023-05-06T01:53:02.275Z,10.78
2023-05-06T01:58:06.724Z,10.76
2023-05-06T02:03:09.863Z,10.73
2023-05-06T02:08:13.458Z,10.73
2023-05-06T02:13:19.566Z,10.77
2023-05-06T02:18:22.791Z,10.71
2023-05-06T02:23:25.814Z,10.62
2023-05-06T02:28:30.185Z,10.59
2023-05-06T02:33:33.228Z,10.57
2023-05-06T02:38:36.577Z,10.50
2023-05-06T02:43:40.946Z,10.46
2023-05-06T02:48:44.497Z,10.39
2023-05-06T02:53:47.676Z,10.29
2023-05-06T02:58:52.171Z,10.21
2023-05-06T03:03:55.314Z,10.13
2023-05-06T03:08:58.435Z,10.04
2023-05-06T03:14:02.842Z,10.00
2023-05-06T03:19:06.459Z,10.07
2023-05-06T03:24:09.577Z,10.13
2023-05-06T03:29:13.972Z,10.27
2023-05-06T03:34:16.996Z,10.37
2023-05-06T03:39:20.420Z,10.45
2023-05-06T03:44:24.796Z,10.47
2023-05-06T03:49:27.828Z,10.44
2023-05-06T03:54:31.470Z,10.37
2023-05-06T03:59:35.984Z,10.23
2023-05-06T04:04:39.442Z,9.98
2023-05-06T04:09:42.556Z,9.87
2023-05-06T04:14:46.939Z,9.88
2023-05-06T04:19:50.006Z,9.86
2023-05-06T04:24:53.053Z,9.80
2023-05-06T04:29:57.443Z,9.75
2023-05-06T04:35:00.710Z,9.73
2023-05-06T04:40:06.197Z,9.80
2023-05-06T04:45:12.288Z,9.90
2023-05-06T04:50:15.621Z,9.97
2023-05-06T04:55:18.754Z,10.06
2023-05-06T05:00:26.136Z,10.22
2023-05-06T05:05:29.725Z,10.44
2023-05-06T05:10:32.954Z,10.59
2023-05-06T05:15:38.520Z,10.73
2023-05-06T05:20:41.892Z,10.90
2023-05-06T05:25:45.080Z,11.07
2023-05-06T05:30:50.017Z,11.18
2023-05-06T05:35:53.434Z,11.32
2023-05-06T05:40:56.956Z,11.44
2023-05-06T05:46:01.350Z,11.57
2023-05-06T05:51:05.036Z,11.72
2023-05-06T05:56:08.562Z,11.87
2023-05-06T06:01:13.006Z,12.00
2023-05-06T06:06:16.175Z,12.09
2023-05-06T06:11:19.208Z,12.23
2023-05-06T06:16:23.947Z,12.41
2023-05-06T06:21:27.661Z,12.72
2023-05-06T06:26:30.911Z,12.93
2023-05-06T06:31:36.584Z,13.29
2023-05-06T06:36:44.996Z,13.89
2023-05-06T06:41:48.052Z,14.40
2023-05-06T06:46:52.406Z,14.87
2023-05-06T06:51:56.701Z,15.63
2023-05-06T06:57:00.315Z,16.01
2023-05-06T07:02:04.728Z,16.59
2023-05-06T07:07:08.037Z,16.96
2023-05-06T07:12:12.108Z,17.48
2023-05-06T07:17:16.792Z,17.86
2023-05-06T07:22:20.242Z,18.17
2023-05-06T07:27:24.043Z,18.49
2023-05-06T07:32:28.999Z,18.88
2023-05-06T07:37:32.352Z,19.63
2023-05-06T07:42:35.561Z,19.70
2023-05-06T07:47:40.048Z,19.74
2023-05-06T07:52:43.540Z,20.03
2023-05-06T07:57:47.071Z,20.39
2023-05-06T08:02:51.530Z,21.95
2023-05-06T08:07:55.899Z,20.72
2023-05-06T08:12:58.994Z,20.93
2023-05-06T08:18:13.705Z,21.23
2023-05-06T08:23:24.662Z,20.32
2023-05-06T08:28:29.298Z,20.58
2023-05-06T08:33:33.689Z,21.29
2023-05-06T08:38:36.765Z,21.23
2023-05-06T08:43:42.515Z,21.85
2023-05-06T08:48:46.985Z,22.01
2023-05-06T08:53:51.491Z,22.90
2023-05-06T08:58:55.590Z,21.72
2023-05-06T09:04:00.637Z,22.24
2023-05-06T09:09:04.123Z,22.55
2023-05-06T09:14:09.690Z,21.28
2023-05-06T09:19:14.880Z,21.22
2023-05-06T09:24:18.958Z,20.57
2023-05-06T09:29:22.271Z,20.86
2023-05-06T09:34:28.455Z,19.96
2023-05-06T09:39:31.529Z,20.21
2023-05-06T09:44:34.792Z,20.54
2023-05-06T09:49:39.889Z,20.49
2023-05-06T09:54:43.181Z,21.12
2023-05-06T09:59:47.014Z,20.67
2023-05-06T10:04:52.068Z,19.73
2023-05-06T10:09:55.747Z,20.51
2023-05-06T10:14:58.868Z,21.02
2023-05-06T10:20:04.856Z,21.48
2023-05-06T10:25:16.793Z,21.45
2023-05-06T10:30:20.827Z,20.99
2023-05-06T10:35:35.528Z,20.54
2023-05-06T10:40:38.817Z,20.58
2023-05-06T10:46:04.086Z,20.13
2023-05-06T10:51:24.067Z,20.22
2023-05-06T10:56:27.660Z,19.57
2023-05-06T11:01:30.957Z,19.49
2023-05-06T11:06:41.054Z,18.94
2023-05-06T11:11:52.082Z,18.94
2023-05-06T11:16:56.758Z,18.72
2023-05-06T11:22:03.838Z,18.72
2023-05-06T11:27:07.024Z,18.64
2023-05-06T11:32:23.458Z,19.69
2023-05-06T11:37:29.932Z,21.01
2023-05-06T11:42:33.003Z,21.92
2023-05-06T11:47:36.052Z,22.31
2023-05-06T11:52:40.828Z,21.74
2023-05-06T11:57:46.164Z,22.43
2023-05-06T12:02:49.314Z,23.61
2023-05-06T12:07:54.223Z,24.33
2023-05-06T12:12:57.303Z,24.20
2023-05-06T12:18:00.778Z,24.62
2023-05-06T12:23:08.928Z,23.90
2023-05-06T12:28:15.446Z,23.58
2023-05-06T12:33:18.521Z,23.69
2023-05-06T12:38:22.886Z,23.48
2023-05-06T12:43:32.454Z,23.57
2023-05-06T12:48:35.974Z,23.18
2023-05-06T12:53:40.345Z,22.44
2023-05-06T12:58:43.388Z,22.65
2023-05-06T13:03:46.435Z,22.96
2023-05-06T13:08:50.963Z,23.31
2023-05-06T13:13:53.985Z,22.70
2023-05-06T13:18:57.062Z,22.46
2023-05-06T13:24:01.405Z,22.15
2023-05-06T13:29:04.943Z,21.78
2023-05-06T13:34:07.971Z,21.49
2023-05-06T14:11:15.606Z,21.68
2023-05-06T14:16:18.738Z,21.64
2023-05-06T14:21:21.888Z,22.16
2023-05-06T14:26:26.785Z,22.15
2023-05-06T14:31:30.614Z,22.03
2023-05-06T14:36:33.911Z,22.16
2023-05-06T14:41:38.587Z,22.44
2023-05-06T14:46:41.617Z,22.79
2023-05-06T14:51:45.782Z,22.93
2023-05-06T14:56:50.294Z,22.90
2023-05-06T15:01:53.539Z,22.73
2023-05-06T15:06:57.603Z,22.45
2023-05-06T15:12:02.035Z,21.66
2023-05-06T15:17:05.298Z,21.24
2023-05-06T15:22:08.699Z,21.25
2023-05-06T15:27:13.720Z,21.18
2023-05-06T15:32:17.056Z,21.10
2023-05-06T15:37:23.744Z,20.89
2023-05-06T15:42:28.399Z,20.83
2023-05-06T15:47:31.709Z,20.68
2023-05-06T15:52:34.789Z,20.61
2023-05-06T15:57:39.784Z,20.39
2023-05-06T16:02:43.247Z,20.25
2023-05-06T16:07:46.410Z,20.16
2023-05-06T16:12:51.021Z,20.05
2023-05-06T16:17:54.257Z,20.01
2023-05-06T16:22:57.371Z,19.92
2023-05-06T16:28:02.388Z,19.91
2023-05-06T16:33:05.886Z,19.84
2023-05-06T16:38:09.308Z,19.82
2023-05-06T16:43:14.165Z,19.75
2023-05-06T16:48:17.620Z,19.78
2023-05-06T16:53:20.874Z,19.74
2023-05-06T16:58:26.152Z,19.67
2023-05-06T17:03:29.976Z,19.53
2023-05-06T17:08:36.299Z,19.41
2023-05-06T17:13:42.228Z,19.19
2023-05-06T17:18:45.705Z,19.04
2023-05-06T17:23:50.810Z,18.85
2023-05-06T17:28:55.310Z,18.81
2023-05-06T17:33:58.919Z,18.60
2023-05-06T17:39:06.171Z,18.41
2023-05-06T17:44:10.916Z,18.40
2023-05-06T17:49:14.109Z,18.29
2023-05-06T17:54:17.223Z,18.22
2023-05-06T17:59:21.636Z,18.20
2023-05-06T18:04:24.796Z,18.02
2023-05-06T18:09:27.831Z,17.93
2023-05-06T18:14:32.663Z,17.87
2023-05-06T18:19:35.737Z,17.74
2023-05-06T18:24:38.763Z,17.43
2023-05-06T18:29:43.130Z,17.21
2023-05-06T18:34:46.171Z,16.92
2023-05-06T18:39:49.274Z,16.80
2023-05-06T18:44:54.312Z,16.53
2023-05-06T18:49:57.581Z,16.46
2023-05-06T18:55:02.520Z,16.39
2023-05-06T19:00:08.836Z,16.30
2023-05-06T19:05:12.812Z,16.20
2023-05-06T19:10:16.496Z,16.09
2023-05-06T19:15:21.306Z,16.03
2023-05-06T19:20:24.546Z,15.96
2023-05-06T19:25:28.001Z,15.89
2023-05-06T19:30:34.740Z,15.84
2023-05-06T19:35:39.152Z,15.85
2023-05-06T19:40:42.180Z,15.76
2023-05-06T19:45:46.762Z,15.68
2023-05-06T19:50:50.166Z,15.59
2023-05-06T19:55:55.805Z,15.59
2023-05-06T20:01:00.423Z,15.49
2023-05-06T20:06:04.090Z,15.41
2023-05-06T20:11:07.248Z,15.43
2023-05-06T20:16:12.906Z,15.45
2023-05-06T20:21:16.713Z,15.52
2023-05-06T20:26:20.590Z,15.39
2023-05-06T20:31:25.374Z,15.42
2023-05-06T20:36:29.191Z,15.37
2023-05-06T20:41:32.980Z,15.36
2023-05-06T20:46:37.449Z,15.33
2023-05-06T20:51:40.796Z,15.31
2023-05-06T20:56:44.248Z,15.25
2023-05-06T21:01:48.705Z,15.20
2023-05-06T21:06:51.730Z,15.16
2023-05-06T21:11:54.824Z,15.11
2023-05-06T21:16:59.709Z,15.12
2023-05-06T21:22:02.912Z,15.06
2023-05-06T21:27:06.035Z,15.03
2023-05-06T21:32:10.483Z,15.05
2023-05-06T21:37:13.551Z,14.95
2023-05-06T21:42:16.650Z,14.96
2023-05-06T21:47:21.099Z,14.89
2023-05-06T21:52:24.935Z,14.85
2023-05-06T21:57:28.062Z,14.85
2023-05-06T22:02:32.516Z,14.83
2023-05-06T22:07:35.688Z,14.90
2023-05-06T22:12:38.773Z,14.86
2023-05-06T22:17:43.455Z,14.82
2023-05-06T22:22:46.558Z,14.83
2023-05-06T22:27:49.616Z,14.75
2023-05-06T22:32:54.604Z,14.66
2023-05-06T22:37:57.796Z,14.59
2023-05-06T22:43:01.053Z,14.51
2023-05-06T22:48:06.267Z,14.50
2023-05-06T22:53:14.950Z,14.50
2023-05-06T22:58:18.315Z,14.49
2023-05-06T23:03:23.268Z,14.51
2023-05-06T23:08:26.368Z,14.49
2023-05-06T23:13:31.203Z,14.50
2023-05-06T23:18:36.107Z,14.49
2023-05-06T23:23:39.188Z,14.45
2023-05-06T23:28:42.329Z,14.42
2023-05-06T23:33:46.763Z,14.31
2023-05-06T23:38:50.050Z,14.27
2023-05-06T23:43:53.142Z,14.22
2023-05-06T23:48:57.616Z,14.18
2023-05-06T23:54:00.953Z,14.17
2023-05-06T23:59:04.520Z,14.16
